createdAt,value
2022-08-11T00:01:14.229Z,97645.41
2022-08-11T00:06:39.414Z,97645.31
2022-08-11T00:12:00.389Z,97649.28
2022-08-11T00:17:29.412Z,97638.13
2022-08-11T00:22:50.861Z,97641.56
2022-08-11T00:28:27.044Z,97636.88
2022-08-11T00:33:51.000Z,97641.69
2022-08-11T00:39:13.269Z,97634.75
2022-08-11T00:44:52.081Z,97641.38
2022-08-11T00:50:29.604Z,97626.56
2022-08-11T00:56:14.708Z,97632.50
2022-08-11T01:01:38.413Z,97627.38
2022-08-11T01:06:59.068Z,97626.41
2022-08-11T01:12:41.171Z,97628.72
2022-08-11T01:18:29.542Z,97627.38
2022-08-11T01:23:56.453Z,97631.84
2022-08-11T01:30:15.672Z,97625.09
2022-08-11T01:35:49.004Z,97631.22
2022-08-11T01:42:06.160Z,97629.59
2022-08-11T01:47:53.612Z,97636.19
2022-08-11T01:53:35.647Z,97627.59
2022-08-11T01:59:02.269Z,97621.03
2022-08-11T02:04:22.981Z,97613.78
2022-08-11T02:10:36.625Z,97606.84
2022-08-11T02:16:11.157Z,97609.03
2022-08-11T02:22:02.613Z,97606.44
2022-08-11T02:27:37.053Z,97608.59
2022-08-11T02:33:25.419Z,97615.84
2022-08-11T02:39:20.138Z,97606.00
2022-08-11T02:44:57.218Z,97608.78
2022-08-11T02:50:27.719Z,97618.69
2022-08-11T02:56:01.807Z,97612.44
2022-08-11T03:01:41.019Z,97603.88
2022-08-11T03:07:28.507Z,97610.78
2022-08-11T03:13:21.049Z,97601.06
2022-08-11T03:18:47.952Z,97606.16
2022-08-11T03:24:19.129Z,97612.59
2022-08-11T03:29:47.832Z,97608.47
2022-08-11T03:35:11.570Z,97602.84
2022-08-11T03:42:01.949Z,97610.09
2022-08-11T03:47:55.006Z,97611.44
2022-08-11T03:53:35.471Z,97617.19
2022-08-11T03:59:18.101Z,97611.56
2022-08-11T04:05:15.975Z,97616.84
2022-08-11T04:11:16.716Z,97617.19
2022-08-11T04:17:08.209Z,97616.38
2022-08-11T04:22:50.440Z,97619.66
2022-08-11T04:28:29.323Z,97613.25
2022-08-11T04:34:08.233Z,97612.75
2022-08-11T04:39:57.073Z,97621.56
2022-08-11T04:46:00.070Z,97622.13
2022-08-11T04:52:14.750Z,97619.28
2022-08-11T04:58:06.902Z,97612.78
2022-08-11T05:03:49.403Z,97612.78
2022-08-11T05:09:10.245Z,97605.47
2022-08-11T05:14:53.233Z,97597.28
2022-08-11T05:20:32.941Z,97606.78
2022-08-11T05:26:46.697Z,97613.44
2022-08-11T05:32:19.661Z,97615.44
2022-08-11T05:38:04.731Z,97614.31
2022-08-11T05:44:20.475Z,97618.66
2022-08-11T05:49:47.575Z,97615.44
2022-08-11T05:55:28.797Z,97610.34
2022-08-11T06:00:49.669Z,97622.53
2022-08-11T06:06:10.914Z,97619.25
2022-08-11T06:11:43.941Z,97611.06
2022-08-11T06:17:06.681Z,97611.13
2022-08-11T06:22:27.839Z,97617.28
2022-08-11T06:27:58.695Z,97615.88
2022-08-11T06:33:31.325Z,97619.50
2022-08-11T06:39:14.431Z,97625.06
2022-08-11T06:45:05.255Z,97631.66
2022-08-11T06:50:44.845Z,97619.34
2022-08-11T06:56:24.925Z,97618.91
2022-08-11T07:02:05.214Z,97623.53
2022-08-11T07:08:34.067Z,97620.78
2022-08-11T07:14:02.880Z,97616.97
2022-08-11T07:19:47.672Z,97616.09
2022-08-11T07:25:32.916Z,97621.75
2022-08-11T07:30:59.280Z,97628.16
2022-08-11T07:36:28.194Z,97627.94
2022-08-11T07:41:52.127Z,97635.22
2022-08-11T07:47:32.865Z,97629.97
2022-08-11T07:52:53.989Z,97631.13
2022-08-11T07:58:37.759Z,97627.28
2022-08-11T08:04:25.848Z,97633.06
2022-08-11T08:10:05.335Z,97621.81
2022-08-11T08:15:44.393Z,97626.34
2022-08-11T08:21:12.479Z,97619.56
2022-08-11T08:26:53.569Z,97612.56
2022-08-11T08:32:16.455Z,97611.78
2022-08-11T08:37:46.198Z,97617.91
2022-08-11T08:43:15.177Z,97614.00
2022-08-11T08:48:36.753Z,97604.59
2022-08-11T08:54:06.030Z,97613.19
2022-08-11T08:59:38.120Z,97609.91
2022-08-11T09:05:10.047Z,97609.28
2022-08-11T09:10:32.873Z,97611.16
2022-08-11T09:15:56.430Z,97603.16
2022-08-11T09:21:39.355Z,97603.56
2022-08-11T09:27:07.468Z,97600.66
2022-08-11T09:32:31.496Z,97600.06
2022-08-11T09:38:12.888Z,97594.94
2022-08-11T09:43:55.259Z,97578.56
2022-08-11T09:49:21.214Z,97583.69
2022-08-11T09:54:48.215Z,97589.22
2022-08-11T10:00:13.533Z,97578.97
2022-08-11T10:05:53.547Z,97568.94
2022-08-11T10:11:18.362Z,97569.91
2022-08-11T10:16:43.834Z,97568.63
2022-08-11T10:22:27.569Z,97556.09
2022-08-11T10:28:28.604Z,97555.38
2022-08-11T10:33:59.073Z,97558.28
2022-08-11T10:39:22.044Z,97543.34
2022-08-11T10:44:46.070Z,97537.22
2022-08-11T10:50:29.781Z,97539.84
2022-08-11T10:56:09.579Z,97538.66
2022-08-11T11:01:36.527Z,97519.59
2022-08-11T11:07:13.857Z,97526.97
2022-08-11T11:12:57.800Z,97524.53
2022-08-11T11:18:22.724Z,97524.31
2022-08-11T11:23:54.099Z,97524.09
2022-08-11T11:29:31.515Z,97521.63
2022-08-11T11:35:04.512Z,97517.53
2022-08-11T11:40:30.600Z,97526.31
2022-08-11T11:45:53.119Z,97530.63
2022-08-11T11:51:14.198Z,97518.78
2022-08-11T11:56:36.414Z,97507.88
2022-08-11T12:01:57.769Z,97511.94
2022-08-11T12:07:38.770Z,97511.94
2022-08-11T12:13:20.514Z,97505.22
2022-08-11T12:18:42.917Z,97505.78
2022-08-11T12:24:29.347Z,97492.25
2022-08-11T12:29:55.925Z,97498.03
2022-08-11T12:35:17.133Z,97474.47
2022-08-11T12:41:15.098Z,97478.72
2022-08-11T12:46:38.869Z,97463.38
2022-08-11T12:52:14.661Z,97470.38
2022-08-11T12:58:04.145Z,97458.31
2022-08-11T13:03:43.717Z,97454.84
2022-08-11T13:09:13.774Z,97446.44
2022-08-11T13:14:34.987Z,97442.94
2022-08-11T13:19:59.068Z,97437.59
2022-08-11T13:25:24.436Z,97446.78
2022-08-11T13:31:04.169Z,97436.25
2022-08-11T13:36:28.551Z,97437.78
2022-08-11T13:41:49.926Z,97439.47
2022-08-11T13:47:13.670Z,97431.50
2022-08-11T13:52:38.989Z,97428.81
2022-08-11T13:58:08.150Z,97419.19
2022-08-11T14:04:30.017Z,97412.97
2022-08-11T14:09:27.510Z,97408.66
2022-08-11T14:15:05.882Z,97401.88
2022-08-11T14:20:50.998Z,97400.41
2022-08-11T14:26:23.774Z,97389.38
2022-08-11T14:31:47.798Z,97390.91
2022-08-11T14:37:12.182Z,97389.88
2022-08-11T14:42:51.744Z,97375.28
2022-08-11T14:48:12.235Z,97382.88
2022-08-11T14:53:33.186Z,97382.41
2022-08-11T14:58:54.319Z,97373.00
2022-08-11T15:04:36.068Z,97374.06
2022-08-11T15:10:14.296Z,97360.94
2022-08-11T15:15:53.888Z,97363.41
2022-08-11T15:21:33.653Z,97358.38
2022-08-11T15:27:14.943Z,97344.78
2022-08-11T15:32:59.086Z,97342.31
2022-08-11T15:38:24.034Z,97337.00
2022-08-11T15:44:10.195Z,97335.56
2022-08-11T15:50:11.958Z,97344.38
2022-08-11T15:55:19.234Z,97337.00
2022-08-11T16:01:04.307Z,97342.56
2022-08-11T16:06:31.483Z,97332.41
2022-08-11T16:11:54.531Z,97331.81
2022-08-11T16:17:18.027Z,97325.47
2022-08-11T16:22:41.852Z,97335.72
2022-08-11T16:28:18.802Z,97328.78
2022-08-11T16:33:51.182Z,97325.31
2022-08-11T16:39:14.718Z,97328.19
2022-08-11T16:44:55.490Z,97324.13
2022-08-11T16:50:17.605Z,97326.97
2022-08-11T16:55:52.274Z,97313.66
2022-08-11T17:01:14.964Z,97314.09
2022-08-11T17:07:00.084Z,97308.94
2022-08-11T17:12:44.000Z,97308.94
2022-08-11T17:18:07.332Z,97310.38
2022-08-11T17:23:48.394Z,97313.47
2022-08-11T17:29:10.376Z,97310.63
2022-08-11T17:34:49.557Z,97308.19
2022-08-11T17:40:13.646Z,97312.88
2022-08-11T17:45:52.964Z,97312.88
2022-08-11T17:51:38.642Z,97310.63
2022-08-11T17:57:20.545Z,97307.38
2022-08-11T18:03:06.319Z,97323.31
2022-08-11T18:08:48.501Z,97317.16
2022-08-11T18:14:30.659Z,97328.63
2022-08-11T18:20:09.985Z,97335.72
2022-08-11T18:25:57.301Z,97329.38
2022-08-11T18:31:39.507Z,97339.97
2022-08-11T18:37:19.707Z,97342.19
2022-08-11T18:43:05.954Z,97338.06
2022-08-11T18:48:47.617Z,97341.72
2022-08-11T18:54:30.083Z,97341.50
2022-08-11T19:00:12.265Z,97344.94
2022-08-11T19:06:35.220Z,97343.31
2022-08-11T19:11:56.715Z,97344.91
2022-08-11T19:17:43.394Z,97346.75
2022-08-11T19:23:27.613Z,97341.00
2022-08-11T19:29:08.327Z,97347.06
2022-08-11T19:34:50.068Z,97353.16
2022-08-11T19:40:31.092Z,97344.31
2022-08-11T19:46:14.186Z,97345.28
2022-08-11T19:51:55.933Z,97343.81
2022-08-11T19:57:39.911Z,97337.47
2022-08-11T20:03:22.376Z,97343.13
2022-08-11T20:09:04.360Z,97339.69
2022-08-11T20:14:49.584Z,97331.91
2022-08-11T20:20:31.279Z,97343.72
2022-08-11T20:26:30.150Z,97341.41
2022-08-11T20:32:11.186Z,97338.91
2022-08-11T20:37:53.013Z,97342.75
2022-08-11T20:44:08.010Z,97351.53
2022-08-11T20:49:48.727Z,97343.72
2022-08-11T20:55:45.642Z,97349.97
2022-08-11T21:01:38.627Z,97353.44
2022-08-11T21:07:28.544Z,97359.91
2022-08-11T21:13:24.101Z,97366.34
2022-08-11T21:19:08.605Z,97361.25
2022-08-11T21:24:50.755Z,97359.03
2022-08-11T21:30:30.418Z,97369.25
2022-08-11T21:36:09.491Z,97378.09
2022-08-11T21:41:50.613Z,97364.53
2022-08-11T21:47:42.774Z,97377.28
2022-08-11T21:53:25.409Z,97385.69
2022-08-11T21:59:07.460Z,97375.31
2022-08-11T22:04:49.009Z,97377.78
2022-08-11T22:10:42.365Z,97376.50
2022-08-11T22:16:22.898Z,97376.00
2022-08-11T22:22:03.947Z,97374.84
2022-08-11T22:27:43.480Z,97372.13
2022-08-11T22:33:28.468Z,97372.38
2022-08-11T22:39:09.399Z,97368.47
2022-08-11T22:44:48.968Z,97369.91
2022-08-11T22:50:28.920Z,97369.13
2022-08-11T22:56:08.510Z,97367.28
2022-08-11T23:01:55.360Z,97370.66
2022-08-11T23:07:50.284Z,97365.84
2022-08-11T23:13:32.249Z,97364.84
2022-08-11T23:19:11.816Z,97374.31
2022-08-11T23:24:51.523Z,97366.94
2022-08-11T23:30:31.905Z,97366.28
2022-08-11T23:36:11.214Z,97360.84
2022-08-11T23:42:10.646Z,97360.00
2022-08-11T23:47:51.178Z,97358.63
2022-08-11T23:53:32.708Z,97352.88
2022-08-11T23:59:11.821Z,97346.59
